sensor_id;sensor_type;location;lat;lon;timestamp;P1;durP1;ratioP1;P2;durP2;ratioP2
20367;SDS011;10343;52.402;9.796;2022-12-05T00:02:19;28.05;;;7.53;;
20367;SDS011;10343;52.402;9.796;2022-12-05T00:05:03;41.53;;;9.90;;
20367;SDS011;10343;52.402;9.796;2022-12-05T00:07:41;34.97;;;7.82;;
20367;SDS011;10343;52.402;9.796;2022-12-05T00:10:10;33.75;;;9.50;;
20367;SDS011;10343;52.402;9.796;2022-12-05T00:12:38;35.13;;;8.55;;
20367;SDS011;10343;52.402;9.796;2022-12-05T00:15:08;30.52;;;9.60;;
20367;SDS011;10343;52.402;9.796;2022-12-05T00:17:40;33.00;;;8.52;;
20367;SDS011;10343;52.402;9.796;2022-12-05T00:20:11;31.75;;;8.88;;
20367;SDS011;10343;52.402;9.796;2022-12-05T00:22:39;32.40;;;7.05;;
20367;SDS011;10343;52.402;9.796;2022-12-05T00:25:10;33.22;;;7.80;;
20367;SDS011;10343;52.402;9.796;2022-12-05T00:27:45;29.17;;;6.82;;
20367;SDS011;10343;52.402;9.796;2022-12-05T00:30:17;31.98;;;9.05;;
20367;SDS011;10343;52.402;9.796;2022-12-05T00:32:47;34.50;;;8.45;;
20367;SDS011;10343;52.402;9.796;2022-12-05T00:35:16;30.65;;;8.40;;
20367;SDS011;10343;52.402;9.796;2022-12-05T00:37:44;30.23;;;9.15;;
20367;SDS011;10343;52.402;9.796;2022-12-05T00:40:15;33.00;;;8.50;;
20367;SDS011;10343;52.402;9.796;2022-12-05T00:42:48;32.72;;;7.63;;
20367;SDS011;10343;52.402;9.796;2022-12-05T00:45:21;37.22;;;9.50;;
20367;SDS011;10343;52.402;9.796;2022-12-05T00:47:52;29.00;;;7.88;;
20367;SDS011;10343;52.402;9.796;2022-12-05T00:50:21;34.22;;;8.48;;
20367;SDS011;10343;52.402;9.796;2022-12-05T00:52:49;31.48;;;8.55;;
20367;SDS011;10343;52.402;9.796;2022-12-05T00:55:19;29.38;;;6.20;;
20367;SDS011;10343;52.402;9.796;2022-12-05T00:57:48;34.10;;;6.50;;
20367;SDS011;10343;52.402;9.796;2022-12-05T01:00:17;27.27;;;6.55;;
20367;SDS011;10343;52.402;9.796;2022-12-05T01:02:47;32.90;;;7.82;;
20367;SDS011;10343;52.402;9.796;2022-12-05T01:05:20;31.00;;;6.57;;
20367;SDS011;10343;52.402;9.796;2022-12-05T01:07:49;29.05;;;7.22;;
20367;SDS011;10343;52.402;9.796;2022-12-05T01:10:18;28.58;;;8.10;;
20367;SDS011;10343;52.402;9.796;2022-12-05T01:12:47;30.73;;;8.38;;
20367;SDS011;10343;52.402;9.796;2022-12-05T01:15:16;27.75;;;7.97;;
20367;SDS011;10343;52.402;9.796;2022-12-05T01:17:44;32.17;;;6.78;;
20367;SDS011;10343;52.402;9.796;2022-12-05T01:20:13;30.73;;;7.45;;
20367;SDS011;10343;52.402;9.796;2022-12-05T01:22:44;28.27;;;6.75;;
20367;SDS011;10343;52.402;9.796;2022-12-05T01:25:12;30.35;;;7.65;;
20367;SDS011;10343;52.402;9.796;2022-12-05T01:27:41;31.02;;;8.80;;
20367;SDS011;10343;52.402;9.796;2022-12-05T01:30:10;27.67;;;8.05;;
20367;SDS011;10343;52.402;9.796;2022-12-05T01:32:40;31.35;;;6.53;;
20367;SDS011;10343;52.402;9.796;2022-12-05T01:35:48;26.52;;;5.60;;
20367;SDS011;10343;52.402;9.796;2022-12-05T01:38:26;32.45;;;6.35;;
20367;SDS011;10343;52.402;9.796;2022-12-05T01:41:00;29.20;;;6.55;;
20367;SDS011;10343;52.402;9.796;2022-12-05T01:43:32;28.45;;;6.53;;
20367;SDS011;10343;52.402;9.796;2022-12-05T01:46:01;23.42;;;4.75;;
20367;SDS011;10343;52.402;9.796;2022-12-05T01:48:44;26.85;;;5.60;;
20367;SDS011;10343;52.402;9.796;2022-12-05T01:51:13;29.23;;;6.40;;
20367;SDS011;10343;52.402;9.796;2022-12-05T01:53:46;26.08;;;5.47;;
20367;SDS011;10343;52.402;9.796;2022-12-05T01:56:15;21.27;;;4.85;;
20367;SDS011;10343;52.402;9.796;2022-12-05T01:58:47;24.73;;;5.10;;
20367;SDS011;10343;52.402;9.796;2022-12-05T02:01:16;25.88;;;5.72;;
20367;SDS011;10343;52.402;9.796;2022-12-05T02:03:46;23.67;;;5.00;;
20367;SDS011;10343;52.402;9.796;2022-12-05T02:06:18;22.45;;;4.97;;
20367;SDS011;10343;52.402;9.796;2022-12-05T02:08:54;25.58;;;5.07;;
20367;SDS011;10343;52.402;9.796;2022-12-05T02:11:24;22.27;;;4.45;;
20367;SDS011;10343;52.402;9.796;2022-12-05T02:14:03;19.80;;;3.72;;
20367;SDS011;10343;52.402;9.796;2022-12-05T02:16:46;24.33;;;3.95;;
20367;SDS011;10343;52.402;9.796;2022-12-05T02:22:33;21.23;;;4.63;;
20367;SDS011;10343;52.402;9.796;2022-12-05T02:25:17;22.73;;;4.45;;
20367;SDS011;10343;52.402;9.796;2022-12-05T02:31:05;22.63;;;5.75;;
20367;SDS011;10343;52.402;9.796;2022-12-05T02:33:38;24.80;;;3.78;;
20367;SDS011;10343;52.402;9.796;2022-12-05T02:36:12;26.17;;;5.07;;
20367;SDS011;10343;52.402;9.796;2022-12-05T02:38:48;21.92;;;5.03;;
20367;SDS011;10343;52.402;9.796;2022-12-05T02:41:26;24.13;;;5.28;;
20367;SDS011;10343;52.402;9.796;2022-12-05T02:44:00;22.48;;;3.95;;
20367;SDS011;10343;52.402;9.796;2022-12-05T02:46:35;21.58;;;3.75;;
20367;SDS011;10343;52.402;9.796;2022-12-05T02:49:08;19.90;;;3.90;;
20367;SDS011;10343;52.402;9.796;2022-12-05T02:51:43;17.08;;;3.65;;
20367;SDS011;10343;52.402;9.796;2022-12-05T02:54:17;24.10;;;4.82;;
20367;SDS011;10343;52.402;9.796;2022-12-05T02:56:51;21.52;;;3.17;;
20367;SDS011;10343;52.402;9.796;2022-12-05T02:59:21;19.20;;;3.45;;
20367;SDS011;10343;52.402;9.796;2022-12-05T03:01:54;22.10;;;5.68;;
20367;SDS011;10343;52.402;9.796;2022-12-05T03:04:23;22.83;;;3.90;;
20367;SDS011;10343;52.402;9.796;2022-12-05T03:06:54;18.75;;;3.45;;
20367;SDS011;10343;52.402;9.796;2022-12-05T03:09:27;24.60;;;4.45;;
20367;SDS011;10343;52.402;9.796;2022-12-05T03:12:02;19.30;;;2.53;;
20367;SDS011;10343;52.402;9.796;2022-12-05T03:14:39;25.45;;;4.20;;
20367;SDS011;10343;52.402;9.796;2022-12-05T03:17:16;19.98;;;4.78;;
20367;SDS011;10343;52.402;9.796;2022-12-05T03:19:51;20.95;;;2.85;;
20367;SDS011;10343;52.402;9.796;2022-12-05T03:22:27;18.45;;;2.53;;
20367;SDS011;10343;52.402;9.796;2022-12-05T03:25:02;19.05;;;4.85;;
20367;SDS011;10343;52.402;9.796;2022-12-05T03:27:38;16.85;;;2.75;;
20367;SDS011;10343;52.402;9.796;2022-12-05T03:30:15;19.50;;;3.60;;
20367;SDS011;10343;52.402;9.796;2022-12-05T03:32:56;16.13;;;3.35;;
20367;SDS011;10343;52.402;9.796;2022-12-05T03:35:39;16.98;;;3.55;;
20367;SDS011;10343;52.402;9.796;2022-12-05T03:38:13;17.02;;;2.97;;
20367;SDS011;10343;52.402;9.796;2022-12-05T03:40:48;21.27;;;2.78;;
20367;SDS011;10343;52.402;9.796;2022-12-05T03:43:32;20.90;;;3.00;;
20367;SDS011;10343;52.402;9.796;2022-12-05T03:46:05;16.17;;;2.00;;
20367;SDS011;10343;52.402;9.796;2022-12-05T03:48:45;18.10;;;2.83;;
20367;SDS011;10343;52.402;9.796;2022-12-05T03:51:19;17.10;;;2.67;;
20367;SDS011;10343;52.402;9.796;2022-12-05T03:54:01;15.43;;;2.10;;
20367;SDS011;10343;52.402;9.796;2022-12-05T03:56:37;19.88;;;2.50;;
20367;SDS011;10343;52.402;9.796;2022-12-05T03:59:11;16.90;;;2.10;;
20367;SDS011;10343;52.402;9.796;2022-12-05T04:01:46;20.95;;;3.67;;
20367;SDS011;10343;52.402;9.796;2022-12-05T04:04:21;17.77;;;2.63;;
20367;SDS011;10343;52.402;9.796;2022-12-05T04:06:57;17.05;;;1.77;;
20367;SDS011;10343;52.402;9.796;2022-12-05T04:09:32;15.30;;;2.22;;
20367;SDS011;10343;52.402;9.796;2022-12-05T04:12:06;18.15;;;2.35;;
20367;SDS011;10343;52.402;9.796;2022-12-05T04:14:41;14.85;;;1.90;;
20367;SDS011;10343;52.402;9.796;2022-12-05T04:17:15;15.32;;;1.48;;
20367;SDS011;10343;52.402;9.796;2022-12-05T04:19:50;14.05;;;1.83;;
20367;SDS011;10343;52.402;9.796;2022-12-05T04:22:39;13.68;;;2.42;;
20367;SDS011;10343;52.402;9.796;2022-12-05T04:25:09;16.77;;;2.15;;
20367;SDS011;10343;52.402;9.796;2022-12-05T04:27:58;12.50;;;1.25;;
20367;SDS011;10343;52.402;9.796;2022-12-05T04:30:34;17.75;;;2.60;;
20367;SDS011;10343;52.402;9.796;2022-12-05T04:33:07;14.63;;;1.92;;
20367;SDS011;10343;52.402;9.796;2022-12-05T04:35:42;13.70;;;1.83;;
20367;SDS011;10343;52.402;9.796;2022-12-05T04:38:14;13.98;;;1.42;;
20367;SDS011;10343;52.402;9.796;2022-12-05T04:40:48;13.35;;;1.48;;
20367;SDS011;10343;52.402;9.796;2022-12-05T04:43:22;19.50;;;2.38;;
20367;SDS011;10343;52.402;9.796;2022-12-05T04:45:52;12.43;;;1.08;;
20367;SDS011;10343;52.402;9.796;2022-12-05T04:48:25;13.13;;;2.28;;
20367;SDS011;10343;52.402;9.796;2022-12-05T04:50:56;15.25;;;2.40;;
20367;SDS011;10343;52.402;9.796;2022-12-05T04:53:26;14.32;;;1.77;;
20367;SDS011;10343;52.402;9.796;2022-12-05T04:55:58;14.55;;;2.53;;
20367;SDS011;10343;52.402;9.796;2022-12-05T04:58:29;15.43;;;2.20;;
20367;SDS011;10343;52.402;9.796;2022-12-05T05:01:01;15.30;;;1.75;;
20367;SDS011;10343;52.402;9.796;2022-12-05T05:03:37;13.57;;;1.20;;
20367;SDS011;10343;52.402;9.796;2022-12-05T05:06:16;13.77;;;2.20;;
20367;SDS011;10343;52.402;9.796;2022-12-05T05:08:50;17.85;;;1.45;;
20367;SDS011;10343;52.402;9.796;2022-12-05T05:11:24;13.05;;;1.35;;
20367;SDS011;10343;52.402;9.796;2022-12-05T05:13:55;11.05;;;1.17;;
20367;SDS011;10343;52.402;9.796;2022-12-05T05:16:26;13.50;;;1.60;;
20367;SDS011;10343;52.402;9.796;2022-12-05T05:18:58;16.08;;;1.40;;
20367;SDS011;10343;52.402;9.796;2022-12-05T05:21:31;13.48;;;1.48;;
20367;SDS011;10343;52.402;9.796;2022-12-05T05:24:06;14.38;;;1.92;;
20367;SDS011;10343;52.402;9.796;2022-12-05T05:26:39;16.02;;;1.90;;
20367;SDS011;10343;52.402;9.796;2022-12-05T05:29:10;11.88;;;2.10;;
20367;SDS011;10343;52.402;9.796;2022-12-05T05:31:41;13.20;;;2.33;;
20367;SDS011;10343;52.402;9.796;2022-12-05T05:34:11;14.73;;;1.77;;
20367;SDS011;10343;52.402;9.796;2022-12-05T05:36:55;13.02;;;1.60;;
20367;SDS011;10343;52.402;9.796;2022-12-05T05:39:34;12.95;;;1.25;;
20367;SDS011;10343;52.402;9.796;2022-12-05T05:42:08;13.82;;;1.75;;
20367;SDS011;10343;52.402;9.796;2022-12-05T05:44:53;12.88;;;2.15;;
20367;SDS011;10343;52.402;9.796;2022-12-05T05:47:33;16.42;;;2.42;;
20367;SDS011;10343;52.402;9.796;2022-12-05T05:50:08;15.75;;;2.03;;
20367;SDS011;10343;52.402;9.796;2022-12-05T05:52:57;11.30;;;0.52;;
20367;SDS011;10343;52.402;9.796;2022-12-05T05:55:27;11.18;;;0.90;;
20367;SDS011;10343;52.402;9.796;2022-12-05T05:58:07;15.40;;;1.17;;
20367;SDS011;10343;52.402;9.796;2022-12-05T06:00:42;16.70;;;1.67;;
20367;SDS011;10343;52.402;9.796;2022-12-05T06:03:13;10.07;;;1.40;;
20367;SDS011;10343;52.402;9.796;2022-12-05T06:05:54;13.57;;;1.65;;
20367;SDS011;10343;52.402;9.796;2022-12-05T06:08:52;11.10;;;1.13;;
20367;SDS011;10343;52.402;9.796;2022-12-05T06:11:24;11.43;;;0.98;;
20367;SDS011;10343;52.402;9.796;2022-12-05T06:13:56;11.60;;;1.10;;
20367;SDS011;10343;52.402;9.796;2022-12-05T06:16:35;10.70;;;0.65;;
20367;SDS011;10343;52.402;9.796;2022-12-05T06:19:12;13.85;;;1.05;;
20367;SDS011;10343;52.402;9.796;2022-12-05T06:21:42;13.45;;;1.10;;
20367;SDS011;10343;52.402;9.796;2022-12-05T06:24:15;13.30;;;1.15;;
20367;SDS011;10343;52.402;9.796;2022-12-05T06:26:51;12.60;;;1.00;;
20367;SDS011;10343;52.402;9.796;2022-12-05T06:29:26;10.07;;;0.90;;
20367;SDS011;10343;52.402;9.796;2022-12-05T06:32:46;13.27;;;0.80;;
20367;SDS011;10343;52.402;9.796;2022-12-05T06:35:29;14.30;;;1.20;;
20367;SDS011;10343;52.402;9.796;2022-12-05T06:38:19;9.73;;;0.43;;
20367;SDS011;10343;52.402;9.796;2022-12-05T06:44:53;8.93;;;0.65;;
20367;SDS011;10343;52.402;9.796;2022-12-05T06:47:38;8.20;;;0.52;;
20367;SDS011;10343;52.402;9.796;2022-12-05T06:50:16;8.98;;;0.68;;
20367;SDS011;10343;52.402;9.796;2022-12-05T06:52:48;9.25;;;0.75;;
20367;SDS011;10343;52.402;9.796;2022-12-05T06:55:28;9.32;;;0.82;;
20367;SDS011;10343;52.402;9.796;2022-12-05T06:58:20;12.55;;;0.93;;
20367;SDS011;10343;52.402;9.796;2022-12-05T07:00:53;8.48;;;0.57;;
20367;SDS011;10343;52.402;9.796;2022-12-05T07:04:04;7.88;;;0.40;;
20367;SDS011;10343;52.402;9.796;2022-12-05T07:06:39;6.82;;;0.30;;
20367;SDS011;10343;52.402;9.796;2022-12-05T07:09:28;9.68;;;0.77;;
20367;SDS011;10343;52.402;9.796;2022-12-05T07:12:54;8.13;;;0.40;;
20367;SDS011;10343;52.402;9.796;2022-12-05T07:19:31;7.18;;;0.30;;
20367;SDS011;10343;52.402;9.796;2022-12-05T07:22:14;8.93;;;0.50;;
20367;SDS011;10343;52.402;9.796;2022-12-05T07:25:00;8.52;;;0.57;;
20367;SDS011;10343;52.402;9.796;2022-12-05T07:28:06;9.75;;;0.65;;
20367;SDS011;10343;52.402;9.796;2022-12-05T07:30:40;11.52;;;0.47;;
20367;SDS011;10343;52.402;9.796;2022-12-05T07:33:49;10.30;;;0.90;;
20367;SDS011;10343;52.402;9.796;2022-12-05T07:36:30;8.18;;;0.60;;
20367;SDS011;10343;52.402;9.796;2022-12-05T07:39:12;8.07;;;0.63;;
20367;SDS011;10343;52.402;9.796;2022-12-05T07:42:20;12.23;;;0.75;;
20367;SDS011;10343;52.402;9.796;2022-12-05T07:44:59;8.20;;;0.30;;
20367;SDS011;10343;52.402;9.796;2022-12-05T07:47:32;5.40;;;0.20;;
20367;SDS011;10343;52.402;9.796;2022-12-05T07:50:43;10.35;;;0.95;;
20367;SDS011;10343;52.402;9.796;2022-12-05T07:53:21;7.82;;;0.38;;
20367;SDS011;10343;52.402;9.796;2022-12-05T07:55:53;11.23;;;0.70;;
20367;SDS011;10343;52.402;9.796;2022-12-05T07:58:24;6.90;;;0.57;;
20367;SDS011;10343;52.402;9.796;2022-12-05T08:01:06;8.55;;;0.68;;
20367;SDS011;10343;52.402;9.796;2022-12-05T08:03:55;9.90;;;0.57;;
20367;SDS011;10343;52.402;9.796;2022-12-05T08:06:49;13.30;;;0.82;;
20367;SDS011;10343;52.402;9.796;2022-12-05T08:09:29;7.43;;;0.55;;
20367;SDS011;10343;52.402;9.796;2022-12-05T08:12:00;8.70;;;0.20;;
20367;SDS011;10343;52.402;9.796;2022-12-05T08:14:32;12.02;;;0.75;;
20367;SDS011;10343;52.402;9.796;2022-12-05T08:17:14;6.80;;;0.52;;
20367;SDS011;10343;52.402;9.796;2022-12-05T08:19:57;6.72;;;0.22;;
20367;SDS011;10343;52.402;9.796;2022-12-05T08:22:35;10.98;;;0.75;;
20367;SDS011;10343;52.402;9.796;2022-12-05T08:25:42;8.65;;;0.47;;
20367;SDS011;10343;52.402;9.796;2022-12-05T08:28:39;7.80;;;0.40;;
20367;SDS011;10343;52.402;9.796;2022-12-05T08:31:55;6.60;;;0.30;;
20367;SDS011;10343;52.402;9.796;2022-12-05T08:35:45;9.32;;;0.45;;
20367;SDS011;10343;52.402;9.796;2022-12-05T08:38:25;7.60;;;0.38;;
20367;SDS011;10343;52.402;9.796;2022-12-05T08:40:58;5.88;;;0.30;;
20367;SDS011;10343;52.402;9.796;2022-12-05T08:43:35;7.20;;;0.40;;
20367;SDS011;10343;52.402;9.796;2022-12-05T08:46:08;7.63;;;0.85;;
20367;SDS011;10343;52.402;9.796;2022-12-05T08:48:40;7.03;;;0.63;;
20367;SDS011;10343;52.402;9.796;2022-12-05T08:52:07;5.70;;;0.20;;
20367;SDS011;10343;52.402;9.796;2022-12-05T08:54:36;7.50;;;0.45;;
20367;SDS011;10343;52.402;9.796;2022-12-05T08:57:09;5.43;;;0.22;;
20367;SDS011;10343;52.402;9.796;2022-12-05T08:59:45;9.93;;;0.90;;
20367;SDS011;10343;52.402;9.796;2022-12-05T09:02:48;7.22;;;0.50;;
20367;SDS011;10343;52.402;9.796;2022-12-05T09:05:28;7.07;;;0.38;;
20367;SDS011;10343;52.402;9.796;2022-12-05T09:08:11;6.00;;;0.20;;
20367;SDS011;10343;52.402;9.796;2022-12-05T09:10:47;6.00;;;0.20;;
20367;SDS011;10343;52.402;9.796;2022-12-05T09:13:31;7.85;;;0.73;;
20367;SDS011;10343;52.402;9.796;2022-12-05T09:17:08;7.47;;;0.30;;
20367;SDS011;10343;52.402;9.796;2022-12-05T09:20:03;8.00;;;0.30;;
20367;SDS011;10343;52.402;9.796;2022-12-05T09:22:36;7.13;;;0.40;;
20367;SDS011;10343;52.402;9.796;2022-12-05T09:25:06;7.43;;;0.38;;
20367;SDS011;10343;52.402;9.796;2022-12-05T09:27:39;5.55;;;0.22;;
20367;SDS011;10343;52.402;9.796;2022-12-05T09:33:09;6.78;;;0.30;;
20367;SDS011;10343;52.402;9.796;2022-12-05T09:35:41;7.53;;;0.40;;
20367;SDS011;10343;52.402;9.796;2022-12-05T09:38:09;5.32;;;0.32;;
20367;SDS011;10343;52.402;9.796;2022-12-05T09:40:41;7.57;;;0.20;;
20367;SDS011;10343;52.402;9.796;2022-12-05T09:43:13;7.05;;;0.30;;
20367;SDS011;10343;52.402;9.796;2022-12-05T09:45:53;4.28;;;0.10;;
20367;SDS011;10343;52.402;9.796;2022-12-05T09:48:32;4.32;;;0.10;;
20367;SDS011;10343;52.402;9.796;2022-12-05T09:51:23;7.18;;;0.20;;
20367;SDS011;10343;52.402;9.796;2022-12-05T09:54:09;9.23;;;1.02;;
20367;SDS011;10343;52.402;9.796;2022-12-05T09:56:50;3.67;;;0.10;;
20367;SDS011;10343;52.402;9.796;2022-12-05T09:59:31;6.25;;;0.60;;
20367;SDS011;10343;52.402;9.796;2022-12-05T10:02:14;8.98;;;0.20;;
20367;SDS011;10343;52.402;9.796;2022-12-05T10:04:57;4.57;;;0.10;;
20367;SDS011;10343;52.402;9.796;2022-12-05T10:07:33;6.00;;;0.20;;
20367;SDS011;10343;52.402;9.796;2022-12-05T10:10:18;5.40;;;0.20;;
20367;SDS011;10343;52.402;9.796;2022-12-05T10:13:07;4.97;;;0.10;;
20367;SDS011;10343;52.402;9.796;2022-12-05T10:16:12;9.15;;;0.73;;
20367;SDS011;10343;52.402;9.796;2022-12-05T10:19:01;6.03;;;0.20;;
20367;SDS011;10343;52.402;9.796;2022-12-05T10:21:42;6.03;;;0.20;;
20367;SDS011;10343;52.402;9.796;2022-12-05T10:24:28;4.85;;;0.17;;
20367;SDS011;10343;52.402;9.796;2022-12-05T10:27:17;4.03;;;0.10;;
20367;SDS011;10343;52.402;9.796;2022-12-05T10:29:49;5.18;;;0.20;;
20367;SDS011;10343;52.402;9.796;2022-12-05T10:32:41;3.97;;;0.10;;
20367;SDS011;10343;52.402;9.796;2022-12-05T10:36:22;4.50;;;0.20;;
20367;SDS011;10343;52.402;9.796;2022-12-05T10:38:56;4.70;;;0.20;;
20367;SDS011;10343;52.402;9.796;2022-12-05T10:42:14;8.25;;;0.10;;
20367;SDS011;10343;52.402;9.796;2022-12-05T10:44:50;4.53;;;0.10;;
20367;SDS011;10343;52.402;9.796;2022-12-05T10:47:28;3.67;;;0.10;;
20367;SDS011;10343;52.402;9.796;2022-12-05T10:50:24;6.18;;;0.10;;
20367;SDS011;10343;52.402;9.796;2022-12-05T10:53:16;3.15;;;0.40;;
20367;SDS011;10343;52.402;9.796;2022-12-05T10:55:52;4.65;;;0.20;;
20367;SDS011;10343;52.402;9.796;2022-12-05T10:58:56;4.88;;;0.20;;
20367;SDS011;10343;52.402;9.796;2022-12-05T11:01:57;4.40;;;0.20;;
20367;SDS011;10343;52.402;9.796;2022-12-05T12:13:17;4.03;;;0.10;;
20367;SDS011;10343;52.402;9.796;2022-12-05T12:16:32;2.58;;;0.10;;
20367;SDS011;10343;52.402;9.796;2022-12-05T12:19:33;3.70;;;0.10;;
20367;SDS011;10343;52.402;9.796;2022-12-05T12:23:01;2.53;;;0.10;;
20367;SDS011;10343;52.402;9.796;2022-12-05T12:36:59;3.58;;;0.10;;
20367;SDS011;10343;52.402;9.796;2022-12-05T12:40:39;3.92;;;0.43;;
20367;SDS011;10343;52.402;9.796;2022-12-05T12:43:54;5.57;;;0.20;;
20367;SDS011;10343;52.402;9.796;2022-12-05T12:47:20;4.82;;;0.20;;
20367;SDS011;10343;52.402;9.796;2022-12-05T12:50:41;2.92;;;0.10;;
20367;SDS011;10343;52.402;9.796;2022-12-05T12:57:33;4.90;;;0.10;;
20367;SDS011;10343;52.402;9.796;2022-12-05T13:01:20;3.50;;;0.20;;
20367;SDS011;10343;52.402;9.796;2022-12-05T13:04:40;4.72;;;0.20;;
20367;SDS011;10343;52.402;9.796;2022-12-05T13:07:29;4.57;;;0.10;;
20367;SDS011;10343;52.402;9.796;2022-12-05T13:10:16;5.53;;;0.13;;
20367;SDS011;10343;52.402;9.796;2022-12-05T13:12:54;6.60;;;0.28;;
20367;SDS011;10343;52.402;9.796;2022-12-05T13:16:25;6.43;;;0.10;;
20367;SDS011;10343;52.402;9.796;2022-12-05T13:19:35;6.60;;;0.40;;
20367;SDS011;10343;52.402;9.796;2022-12-05T13:23:03;7.00;;;0.25;;
20367;SDS011;10343;52.402;9.796;2022-12-05T13:31:49;5.70;;;0.17;;
20367;SDS011;10343;52.402;9.796;2022-12-05T13:35:07;5.30;;;0.20;;
20367;SDS011;10343;52.402;9.796;2022-12-05T15:19:16;3.75;;;0.20;;
20367;SDS011;10343;52.402;9.796;2022-12-05T15:22:27;2.90;;;0.10;;
20367;SDS011;10343;52.402;9.796;2022-12-05T15:25:21;6.63;;;0.20;;
20367;SDS011;10343;52.402;9.796;2022-12-05T15:30:53;4.72;;;0.20;;
20367;SDS011;10343;52.402;9.796;2022-12-05T15:36:50;3.08;;;0.10;;
20367;SDS011;10343;52.402;9.796;2022-12-05T15:39:59;3.53;;;0.10;;
20367;SDS011;10343;52.402;9.796;2022-12-05T15:42:51;3.78;;;0.20;;
20367;SDS011;10343;52.402;9.796;2022-12-05T15:45:34;6.07;;;0.32;;
20367;SDS011;10343;52.402;9.796;2022-12-05T15:48:42;4.78;;;0.20;;
20367;SDS011;10343;52.402;9.796;2022-12-05T15:52:13;3.53;;;0.10;;
20367;SDS011;10343;52.402;9.796;2022-12-05T15:55:36;4.53;;;0.17;;
20367;SDS011;10343;52.402;9.796;2022-12-05T15:59:14;2.78;;;0.10;;
20367;SDS011;10343;52.402;9.796;2022-12-05T16:02:25;29.75;;;3.30;;
20367;SDS011;10343;52.402;9.796;2022-12-05T16:05:18;5.88;;;0.55;;
20367;SDS011;10343;52.402;9.796;2022-12-05T16:08:20;4.57;;;0.10;;
20367;SDS011;10343;52.402;9.796;2022-12-05T16:11:18;2.47;;;0.10;;
20367;SDS011;10343;52.402;9.796;2022-12-05T16:13:57;5.20;;;0.10;;
20367;SDS011;10343;52.402;9.796;2022-12-05T16:16:39;5.55;;;0.20;;
20367;SDS011;10343;52.402;9.796;2022-12-05T16:19:20;5.10;;;0.20;;
20367;SDS011;10343;52.402;9.796;2022-12-05T16:22:05;5.05;;;0.20;;
20367;SDS011;10343;52.402;9.796;2022-12-05T16:24:41;3.88;;;0.10;;
20367;SDS011;10343;52.402;9.796;2022-12-05T16:27:14;6.28;;;0.20;;
20367;SDS011;10343;52.402;9.796;2022-12-05T16:33:06;10.52;;;0.20;;
20367;SDS011;10343;52.402;9.796;2022-12-05T16:35:58;4.03;;;0.15;;
20367;SDS011;10343;52.402;9.796;2022-12-05T16:39:11;4.47;;;0.10;;
20367;SDS011;10343;52.402;9.796;2022-12-05T16:41:46;5.78;;;0.10;;
20367;SDS011;10343;52.402;9.796;2022-12-05T16:50:24;4.15;;;0.10;;
20367;SDS011;10343;52.402;9.796;2022-12-05T16:53:00;4.10;;;0.17;;
20367;SDS011;10343;52.402;9.796;2022-12-05T16:55:42;9.70;;;0.75;;
20367;SDS011;10343;52.402;9.796;2022-12-05T16:58:15;6.35;;;0.60;;
20367;SDS011;10343;52.402;9.796;2022-12-05T17:00:48;37.20;;;13.80;;
20367;SDS011;10343;52.402;9.796;2022-12-05T17:03:26;6.80;;;0.20;;
20367;SDS011;10343;52.402;9.796;2022-12-05T17:06:02;5.50;;;0.20;;
20367;SDS011;10343;52.402;9.796;2022-12-05T17:08:31;4.68;;;0.20;;
20367;SDS011;10343;52.402;9.796;2022-12-05T17:10:59;6.07;;;0.30;;
20367;SDS011;10343;52.402;9.796;2022-12-05T17:13:31;5.75;;;0.17;;
20367;SDS011;10343;52.402;9.796;2022-12-05T17:15:59;7.15;;;0.30;;
20367;SDS011;10343;52.402;9.796;2022-12-05T17:18:28;7.45;;;0.20;;
20367;SDS011;10343;52.402;9.796;2022-12-05T17:20:58;4.28;;;0.25;;
20367;SDS011;10343;52.402;9.796;2022-12-05T17:23:28;10.20;;;0.30;;
20367;SDS011;10343;52.402;9.796;2022-12-05T17:25:57;5.85;;;0.20;;
20367;SDS011;10343;52.402;9.796;2022-12-05T17:28:26;4.40;;;0.20;;
20367;SDS011;10343;52.402;9.796;2022-12-05T17:30:56;6.55;;;0.10;;
20367;SDS011;10343;52.402;9.796;2022-12-05T17:33:26;4.47;;;0.30;;
20367;SDS011;10343;52.402;9.796;2022-12-05T17:35:54;6.85;;;0.75;;
20367;SDS011;10343;52.402;9.796;2022-12-05T17:38:23;12.82;;;1.27;;
20367;SDS011;10343;52.402;9.796;2022-12-05T17:40:53;10.55;;;1.30;;
20367;SDS011;10343;52.402;9.796;2022-12-05T17:43:22;3.97;;;0.20;;
20367;SDS011;10343;52.402;9.796;2022-12-05T17:45:54;5.60;;;0.45;;
20367;SDS011;10343;52.402;9.796;2022-12-05T17:48:27;6.30;;;0.20;;
20367;SDS011;10343;52.402;9.796;2022-12-05T17:50:55;7.47;;;0.50;;
20367;SDS011;10343;52.402;9.796;2022-12-05T17:53:24;6.03;;;0.22;;
20367;SDS011;10343;52.402;9.796;2022-12-05T17:55:52;5.32;;;0.10;;
20367;SDS011;10343;52.402;9.796;2022-12-05T17:58:21;5.68;;;0.20;;
20367;SDS011;10343;52.402;9.796;2022-12-05T18:00:54;8.32;;;0.20;;
20367;SDS011;10343;52.402;9.796;2022-12-05T18:03:24;6.35;;;0.25;;
20367;SDS011;10343;52.402;9.796;2022-12-05T18:05:52;6.18;;;0.10;;
20367;SDS011;10343;52.402;9.796;2022-12-05T18:08:20;8.27;;;0.32;;
20367;SDS011;10343;52.402;9.796;2022-12-05T18:10:50;4.68;;;0.20;;
20367;SDS011;10343;52.402;9.796;2022-12-05T18:13:18;5.65;;;0.20;;
20367;SDS011;10343;52.402;9.796;2022-12-05T18:15:46;5.85;;;0.40;;
20367;SDS011;10343;52.402;9.796;2022-12-05T18:18:16;6.90;;;0.32;;
20367;SDS011;10343;52.402;9.796;2022-12-05T18:20:46;7.57;;;0.32;;
20367;SDS011;10343;52.402;9.796;2022-12-05T18:23:14;6.00;;;0.20;;
20367;SDS011;10343;52.402;9.796;2022-12-05T18:25:42;5.47;;;0.20;;
20367;SDS011;10343;52.402;9.796;2022-12-05T18:28:12;6.90;;;0.50;;
20367;SDS011;10343;52.402;9.796;2022-12-05T18:30:46;7.90;;;0.30;;
20367;SDS011;10343;52.402;9.796;2022-12-05T18:33:14;6.68;;;0.28;;
20367;SDS011;10343;52.402;9.796;2022-12-05T18:35:44;6.85;;;0.20;;
20367;SDS011;10343;52.402;9.796;2022-12-05T18:38:17;7.15;;;0.50;;
20367;SDS011;10343;52.402;9.796;2022-12-05T18:40:46;11.30;;;0.88;;
20367;SDS011;10343;52.402;9.796;2022-12-05T18:43:14;10.93;;;0.55;;
20367;SDS011;10343;52.402;9.796;2022-12-05T18:45:43;7.60;;;0.30;;
20367;SDS011;10343;52.402;9.796;2022-12-05T18:48:12;8.02;;;0.40;;
20367;SDS011;10343;52.402;9.796;2022-12-05T18:51:08;7.97;;;0.77;;
20367;SDS011;10343;52.402;9.796;2022-12-05T18:53:37;9.52;;;0.40;;
20367;SDS011;10343;52.402;9.796;2022-12-05T18:56:06;7.20;;;0.38;;
20367;SDS011;10343;52.402;9.796;2022-12-05T18:58:53;7.95;;;0.30;;
20367;SDS011;10343;52.402;9.796;2022-12-05T19:01:23;13.05;;;2.10;;
20367;SDS011;10343;52.402;9.796;2022-12-05T19:03:53;11.05;;;1.95;;
20367;SDS011;10343;52.402;9.796;2022-12-05T19:06:26;7.93;;;0.50;;
20367;SDS011;10343;52.402;9.796;2022-12-05T19:09:03;6.85;;;0.45;;
20367;SDS011;10343;52.402;9.796;2022-12-05T19:11:33;8.43;;;0.30;;
20367;SDS011;10343;52.402;9.796;2022-12-05T19:14:06;6.22;;;0.28;;
20367;SDS011;10343;52.402;9.796;2022-12-05T19:16:36;6.38;;;0.30;;
20367;SDS011;10343;52.402;9.796;2022-12-05T19:19:07;6.45;;;0.45;;
20367;SDS011;10343;52.402;9.796;2022-12-05T19:21:49;6.35;;;0.20;;
20367;SDS011;10343;52.402;9.796;2022-12-05T19:24:19;8.45;;;0.30;;
20367;SDS011;10343;52.402;9.796;2022-12-05T19:26:47;7.95;;;0.60;;
20367;SDS011;10343;52.402;9.796;2022-12-05T19:29:16;8.90;;;0.45;;
20367;SDS011;10343;52.402;9.796;2022-12-05T19:31:45;5.90;;;0.35;;
20367;SDS011;10343;52.402;9.796;2022-12-05T19:34:13;6.75;;;0.20;;
20367;SDS011;10343;52.402;9.796;2022-12-05T19:36:42;7.13;;;0.40;;
20367;SDS011;10343;52.402;9.796;2022-12-05T19:39:14;9.77;;;0.70;;
20367;SDS011;10343;52.402;9.796;2022-12-05T19:41:44;7.97;;;0.30;;
20367;SDS011;10343;52.402;9.796;2022-12-05T19:44:13;7.25;;;0.85;;